Enon, Ohio
Current Conditions -  °F | °C
As of 4:56 PM on Monday 24 Nov 2014 (Local Time) from KSGH Reporting Station
Overcast Overcast  
Wind Chill: 33°   Ceiling: 2900
Heat Index: 42°   Visibility: 8mi
Dew Point: 34°   Wind: 21mph
Humidity: 73%   Direction: 230°SW
Pressure: 29.71"   Gusts: 35mph
Location:  39.88°N, 83.94°W
Report Text: KSGH 242156Z AUTO 23018G30KT 8SM BKN029 OVC036 06/01 A2971 RMK AO2 T00550011 PK WND 23032/2108 SLP060 $
Loading
Personal Weather Stations






























Interactive Weather Map New forecast layout! Learn more

10-Day Weather Forecast

Advertisements
Track Severe Weather on mobile